createdAt,value
2022-10-18T00:01:02.993Z,4.95
2022-10-18T00:03:30.693Z,5.13
2022-10-18T00:05:58.526Z,5.15
2022-10-18T00:08:26.383Z,5.97
2022-10-18T00:10:53.958Z,5.88
2022-10-18T00:13:21.887Z,6.30
2022-10-18T00:16:01.674Z,6.10
2022-10-18T00:18:29.662Z,5.68
2022-10-18T00:21:02.734Z,4.60
2022-10-18T00:23:31.859Z,5.55
2022-10-18T00:26:11.183Z,5.53
2022-10-18T00:28:39.630Z,5.45
2022-10-18T00:31:15.195Z,6.38
2022-10-18T00:33:47.378Z,5.30
2022-10-18T00:36:14.904Z,5.65
2022-10-18T00:38:43.382Z,5.30
2022-10-18T00:41:14.140Z,5.80
2022-10-18T00:43:52.166Z,6.17
2022-10-18T00:46:19.774Z,5.00
2022-10-18T00:48:48.387Z,5.07
2022-10-18T00:51:18.556Z,6.32
2022-10-18T00:53:46.364Z,4.88
2022-10-18T00:56:14.162Z,6.22
2022-10-18T00:58:42.442Z,4.93
2022-10-18T01:01:10.211Z,5.85
2022-10-18T01:03:38.292Z,5.45
2022-10-18T01:06:08.848Z,5.55
2022-10-18T01:09:08.510Z,5.45
2022-10-18T01:11:55.076Z,6.32
2022-10-18T01:14:47.216Z,4.82
2022-10-18T01:17:59.654Z,5.03
2022-10-18T01:20:45.299Z,5.63
2022-10-18T01:23:31.715Z,6.53
2022-10-18T01:26:37.935Z,4.78
2022-10-18T01:29:24.056Z,5.57
2022-10-18T01:31:59.972Z,5.00
2022-10-18T01:34:32.115Z,4.40
2022-10-18T01:37:02.988Z,5.60
2022-10-18T01:39:38.654Z,6.03
2022-10-18T01:42:09.979Z,5.07
2022-10-18T01:44:39.632Z,4.88
2022-10-18T01:47:09.633Z,4.93
2022-10-18T01:49:37.301Z,4.75
2022-10-18T01:52:05.062Z,4.72
2022-10-18T01:54:39.131Z,6.38
2022-10-18T01:57:33.110Z,5.40
2022-10-18T02:00:16.919Z,4.68
2022-10-18T02:03:05.656Z,5.15
2022-10-18T02:05:56.261Z,5.28
2022-10-18T02:08:24.109Z,5.28
2022-10-18T02:10:58.874Z,4.57
2022-10-18T02:13:44.084Z,4.45
2022-10-18T02:16:17.144Z,4.22
2022-10-18T02:18:53.441Z,4.30
2022-10-18T02:21:22.619Z,4.15
2022-10-18T02:23:50.629Z,4.22
2022-10-18T02:26:18.612Z,4.03
2022-10-18T02:28:46.446Z,4.00
2022-10-18T02:31:13.975Z,5.20
2022-10-18T02:34:03.244Z,3.97
2022-10-18T02:36:59.372Z,4.45
2022-10-18T02:39:48.482Z,4.55
2022-10-18T02:42:16.468Z,3.33
2022-10-18T02:44:44.034Z,3.97
2022-10-18T02:47:12.413Z,4.32
2022-10-18T02:49:40.154Z,4.25
2022-10-18T02:52:07.711Z,4.05
2022-10-18T02:54:35.219Z,3.75
2022-10-18T02:57:02.754Z,4.40
2022-10-18T02:59:30.273Z,3.83
2022-10-18T03:01:57.801Z,3.75
2022-10-18T03:04:25.414Z,3.95
2022-10-18T03:06:52.963Z,3.65
2022-10-18T03:09:20.528Z,4.10
2022-10-18T03:11:48.072Z,3.17
2022-10-18T03:14:15.676Z,3.63
2022-10-18T03:16:43.187Z,4.78
2022-10-18T03:19:10.768Z,4.13
2022-10-18T03:21:38.243Z,4.20
2022-10-18T03:24:06.278Z,4.97
2022-10-18T03:26:33.865Z,3.95
2022-10-18T03:29:01.452Z,3.40
2022-10-18T03:33:56.618Z,3.67
2022-10-18T03:36:24.381Z,3.97
2022-10-18T03:38:51.907Z,4.57
2022-10-18T03:41:20.743Z,4.10
2022-10-18T03:43:48.402Z,3.95
2022-10-18T03:46:15.968Z,4.28
2022-10-18T03:48:43.507Z,3.33
2022-10-18T03:51:11.207Z,4.13
2022-10-18T03:53:38.938Z,3.72
2022-10-18T03:56:06.670Z,4.70
2022-10-18T04:01:07.133Z,3.47
2022-10-18T04:03:34.655Z,4.05
2022-10-18T04:06:03.598Z,3.67
2022-10-18T04:08:31.190Z,3.60
2022-10-18T04:10:58.763Z,3.85
2022-10-18T04:13:26.343Z,5.25
2022-10-18T04:15:53.920Z,3.38
2022-10-18T04:18:21.401Z,3.65
2022-10-18T04:20:48.962Z,5.25
2022-10-18T04:23:16.549Z,4.28
2022-10-18T04:28:16.457Z,5.32
2022-10-18T04:30:44.034Z,4.97
2022-10-18T04:33:11.523Z,3.25
2022-10-18T04:35:39.009Z,3.92
2022-10-18T04:38:06.594Z,4.80
2022-10-18T04:40:34.093Z,4.30
2022-10-18T04:43:01.577Z,4.45
2022-10-18T04:45:29.147Z,4.28
2022-10-18T04:47:56.685Z,4.55
2022-10-18T04:50:24.243Z,5.50
2022-10-18T04:52:53.593Z,4.30
2022-10-18T04:55:21.190Z,4.63
2022-10-18T04:57:48.851Z,4.50
2022-10-18T05:00:16.453Z,3.50
2022-10-18T05:02:43.938Z,4.13
2022-10-18T05:05:14.013Z,4.10
2022-10-18T05:07:42.018Z,4.57
2022-10-18T05:10:09.902Z,4.22
2022-10-18T05:12:37.379Z,3.58
2022-10-18T05:15:05.331Z,3.92
2022-10-18T05:17:32.899Z,3.63
2022-10-18T05:20:00.556Z,4.03
2022-10-18T05:22:28.211Z,4.43
2022-10-18T05:24:55.751Z,3.90
2022-10-18T05:27:23.259Z,4.53
2022-10-18T05:29:50.820Z,3.25
2022-10-18T05:32:18.338Z,3.97
2022-10-18T05:34:45.993Z,4.25
2022-10-18T05:37:13.751Z,5.00
2022-10-18T05:39:41.359Z,4.70
2022-10-18T05:42:08.896Z,4.80
2022-10-18T05:44:36.453Z,4.22
2022-10-18T05:47:04.092Z,4.88
2022-10-18T05:49:31.621Z,4.50
2022-10-18T05:51:59.315Z,5.00
2022-10-18T05:54:26.943Z,4.45
2022-10-18T05:56:54.426Z,5.00
2022-10-18T05:59:22.064Z,4.90
2022-10-18T06:01:49.551Z,5.75
2022-10-18T06:04:17.955Z,5.07
2022-10-18T06:06:45.537Z,5.93
2022-10-18T06:09:13.027Z,4.47
2022-10-18T06:11:40.602Z,4.45
2022-10-18T06:14:08.431Z,5.57
2022-10-18T06:19:04.671Z,8.32
2022-10-18T06:21:32.158Z,10.50
2022-10-18T06:24:00.030Z,9.68
2022-10-18T06:26:28.355Z,10.35
2022-10-18T06:28:56.098Z,10.90
2022-10-18T06:31:23.741Z,10.80
2022-10-18T06:33:51.316Z,12.77
2022-10-18T06:36:22.248Z,14.25
2022-10-18T06:38:50.898Z,14.85
2022-10-18T06:41:19.363Z,16.05
2022-10-18T06:43:51.025Z,15.63
2022-10-18T06:46:19.184Z,15.40
2022-10-18T06:48:47.519Z,14.90
2022-10-18T06:51:15.497Z,15.30
2022-10-18T06:53:58.754Z,15.07
2022-10-18T06:56:30.958Z,14.65
2022-10-18T07:01:31.420Z,17.67
2022-10-18T07:03:59.159Z,20.67
2022-10-18T07:06:26.692Z,15.63
2022-10-18T07:08:54.283Z,15.32
2022-10-18T07:11:25.166Z,16.25
2022-10-18T07:13:54.583Z,19.70
2022-10-18T07:16:22.419Z,23.70
2022-10-18T07:18:51.657Z,16.67
2022-10-18T07:21:24.414Z,21.45
2022-10-18T07:23:52.619Z,13.80
2022-10-18T07:26:32.087Z,15.65
2022-10-18T07:29:04.435Z,26.23
2022-10-18T07:31:33.369Z,17.15
2022-10-18T07:34:01.050Z,26.92
2022-10-18T07:36:28.601Z,13.93
2022-10-18T07:38:56.206Z,9.98
2022-10-18T07:41:23.717Z,8.68
2022-10-18T07:43:52.721Z,13.95
2022-10-18T07:46:22.153Z,8.05
2022-10-18T07:48:50.456Z,8.00
2022-10-18T07:51:20.230Z,8.70
2022-10-18T07:53:48.178Z,9.73
2022-10-18T07:56:21.068Z,8.52
2022-10-18T07:58:52.496Z,8.20
2022-10-18T08:01:22.572Z,8.68
2022-10-18T08:03:50.647Z,7.93
2022-10-18T08:06:20.322Z,8.65
2022-10-18T08:08:48.232Z,7.75
2022-10-18T08:11:18.227Z,7.65
2022-10-18T08:13:46.096Z,6.95
2022-10-18T08:16:21.057Z,6.75
2022-10-18T08:18:49.302Z,7.82
2022-10-18T08:21:18.368Z,6.88
2022-10-18T08:23:46.238Z,5.82
2022-10-18T08:26:17.536Z,6.05
2022-10-18T08:28:53.692Z,5.18
2022-10-18T08:31:26.220Z,5.50
2022-10-18T08:33:56.310Z,6.05
2022-10-18T08:36:23.956Z,5.43
2022-10-18T08:38:52.029Z,6.20
2022-10-18T08:41:37.794Z,5.65
2022-10-18T08:44:14.385Z,6.40
2022-10-18T08:46:46.209Z,8.30
2022-10-18T08:49:33.371Z,6.38
2022-10-18T08:52:01.775Z,6.30
2022-10-18T08:55:08.481Z,6.28
2022-10-18T08:57:36.435Z,6.43
2022-10-18T09:00:25.423Z,5.93
2022-10-18T09:03:04.810Z,7.07
2022-10-18T09:05:54.866Z,7.18
2022-10-18T09:08:31.530Z,7.15
2022-10-18T09:11:25.358Z,6.13
2022-10-18T09:14:11.734Z,7.22
2022-10-18T09:16:39.215Z,6.88
2022-10-18T09:19:34.139Z,6.68
2022-10-18T09:22:49.816Z,7.97
2022-10-18T09:25:40.549Z,8.00
2022-10-18T09:28:26.371Z,8.25
2022-10-18T09:31:18.953Z,6.80
2022-10-18T09:34:13.257Z,7.30
2022-10-18T09:36:41.704Z,7.07
2022-10-18T09:39:14.216Z,7.03
2022-10-18T09:41:54.349Z,8.27
2022-10-18T09:44:38.130Z,7.70
2022-10-18T09:47:16.876Z,7.07
2022-10-18T09:49:52.844Z,6.63
2022-10-18T09:52:31.972Z,5.75
2022-10-18T09:55:09.532Z,6.30
2022-10-18T09:57:51.383Z,6.10
2022-10-18T10:00:26.680Z,5.75
2022-10-18T10:02:54.579Z,5.53
2022-10-18T10:05:22.196Z,5.38
2022-10-18T10:07:49.765Z,4.75
2022-10-18T10:10:23.567Z,4.50
2022-10-18T10:13:03.205Z,4.57
2022-10-18T10:15:35.326Z,5.03
2022-10-18T10:18:39.218Z,5.47
2022-10-18T10:21:13.299Z,6.20
2022-10-18T10:23:50.971Z,4.57
2022-10-18T10:26:34.293Z,4.97
2022-10-18T10:29:02.048Z,4.18
2022-10-18T10:31:33.843Z,3.90
2022-10-18T10:34:15.036Z,4.07
2022-10-18T10:36:50.715Z,3.58
2022-10-18T10:39:20.314Z,3.97
2022-10-18T10:41:49.056Z,3.20
2022-10-18T10:44:22.779Z,3.20
2022-10-18T10:46:51.894Z,3.72
2022-10-18T10:52:33.716Z,4.82
2022-10-18T10:55:23.523Z,3.42
2022-10-18T10:57:52.892Z,3.75
2022-10-18T11:00:44.735Z,3.55
2022-10-18T11:03:28.044Z,3.10
2022-10-18T11:05:58.769Z,3.67
2022-10-18T11:08:29.951Z,3.10
2022-10-18T11:11:09.518Z,2.25
2022-10-18T11:13:53.395Z,2.50
2022-10-18T11:17:08.393Z,2.63
2022-10-18T11:19:59.106Z,3.17
2022-10-18T11:22:30.930Z,2.40
2022-10-18T11:24:58.703Z,2.63
2022-10-18T11:27:35.833Z,4.00
2022-10-18T11:30:15.591Z,5.07
2022-10-18T11:32:54.930Z,3.17
2022-10-18T11:35:43.722Z,2.85
2022-10-18T11:38:11.206Z,3.05
2022-10-18T11:40:51.078Z,2.33
2022-10-18T11:44:02.266Z,2.00
2022-10-18T11:46:41.811Z,2.85
2022-10-18T11:49:26.151Z,2.55
2022-10-18T11:52:15.263Z,2.53
2022-10-18T11:55:01.238Z,3.15
2022-10-18T11:57:39.967Z,1.98
2022-10-18T12:00:33.618Z,2.30
2022-10-18T12:03:07.166Z,2.47
2022-10-18T12:05:38.699Z,2.08
2022-10-18T12:08:12.407Z,2.30
2022-10-18T12:10:52.670Z,4.00
2022-10-18T12:13:40.702Z,2.78
2022-10-18T12:16:09.509Z,1.92
2022-10-18T12:18:47.615Z,2.10
2022-10-18T12:21:16.393Z,1.73
2022-10-18T12:24:18.815Z,2.10
2022-10-18T12:26:50.057Z,2.00
2022-10-18T12:29:28.074Z,1.80
2022-10-18T12:32:23.967Z,2.15
2022-10-18T12:35:09.314Z,2.17
2022-10-18T12:38:01.736Z,2.10
2022-10-18T12:40:37.990Z,2.08
2022-10-18T12:43:21.184Z,2.20
2022-10-18T12:45:54.128Z,1.55
2022-10-18T12:48:33.727Z,2.28
2022-10-18T12:51:05.400Z,2.10
2022-10-18T12:53:33.958Z,1.90
2022-10-18T12:56:29.438Z,2.17
2022-10-18T12:59:15.411Z,1.88
2022-10-18T13:01:52.693Z,1.65
2022-10-18T13:04:29.545Z,1.70
2022-10-18T13:06:59.838Z,1.55
2022-10-18T13:09:35.969Z,1.60
2022-10-18T13:12:09.475Z,1.77
2022-10-18T13:15:07.302Z,1.92
2022-10-18T13:18:04.292Z,1.35
2022-10-18T13:20:50.459Z,1.55
2022-10-18T13:23:49.375Z,1.48
2022-10-18T13:26:36.081Z,1.33
2022-10-18T13:29:28.379Z,1.67
2022-10-18T13:32:01.375Z,2.17
2022-10-18T13:34:34.911Z,1.73
2022-10-18T13:37:10.294Z,1.65
2022-10-18T13:39:39.779Z,1.65
2022-10-18T13:42:20.324Z,1.67
2022-10-18T13:44:47.891Z,2.05
2022-10-18T13:47:35.263Z,2.03
2022-10-18T13:50:18.456Z,1.65
2022-10-18T13:53:13.237Z,1.90
2022-10-18T13:56:10.308Z,2.45
2022-10-18T13:58:49.300Z,2.30
2022-10-18T14:02:10.791Z,1.77
2022-10-18T14:05:25.087Z,1.77
2022-10-18T14:08:04.731Z,1.58
2022-10-18T14:11:04.591Z,1.27
2022-10-18T14:13:42.002Z,1.70
2022-10-18T14:16:38.819Z,1.67
2022-10-18T14:19:21.973Z,1.50
2022-10-18T14:21:59.359Z,1.63
2022-10-18T14:24:29.592Z,1.45
2022-10-18T14:27:19.858Z,1.92
2022-10-18T14:29:48.794Z,1.90
2022-10-18T14:32:31.643Z,2.40
2022-10-18T14:35:31.534Z,1.60
2022-10-18T14:37:49.366Z,2.17
2022-10-18T14:40:29.995Z,1.65
2022-10-18T14:43:06.830Z,1.90
2022-10-18T14:45:34.334Z,2.30
2022-10-18T14:48:18.318Z,2.10
2022-10-18T14:50:49.847Z,2.20
2022-10-18T14:53:21.959Z,1.83
2022-10-18T14:56:00.796Z,2.08
2022-10-18T14:58:28.886Z,2.17
2022-10-18T15:00:57.146Z,2.30
2022-10-18T15:03:26.212Z,2.15
2022-10-18T15:05:59.656Z,2.20
2022-10-18T15:08:35.580Z,2.28
2022-10-18T15:11:03.704Z,2.05
2022-10-18T15:13:34.556Z,1.73
2022-10-18T15:16:02.785Z,2.45
2022-10-18T15:21:24.366Z,2.30
2022-10-18T15:23:52.500Z,2.33
2022-10-18T15:26:25.373Z,2.47
2022-10-18T15:28:56.651Z,2.22
2022-10-18T15:31:35.130Z,2.20
2022-10-18T15:34:14.198Z,2.10
2022-10-18T15:39:23.513Z,2.53
2022-10-18T15:41:53.210Z,1.85
2022-10-18T15:44:23.578Z,1.73
2022-10-18T15:46:56.737Z,2.00
2022-10-18T15:49:24.208Z,1.73
2022-10-18T15:52:39.534Z,1.95
2022-10-18T15:55:32.982Z,2.50
2022-10-18T15:58:06.038Z,2.50
2022-10-18T16:00:33.601Z,1.90
2022-10-18T16:03:01.272Z,2.60
2022-10-18T16:05:28.816Z,2.50
2022-10-18T16:07:56.499Z,2.67
2022-10-18T16:10:24.171Z,2.40
2022-10-18T16:12:51.699Z,2.42
2022-10-18T16:15:19.414Z,2.53
2022-10-18T16:17:48.326Z,2.80
2022-10-18T16:20:22.145Z,2.40
2022-10-18T16:22:49.773Z,2.53
2022-10-18T16:25:17.586Z,2.88
2022-10-18T16:27:45.128Z,2.53
2022-10-18T16:30:17.095Z,2.80
2022-10-18T16:32:46.881Z,3.28
2022-10-18T16:35:15.990Z,2.70
2022-10-18T16:37:44.137Z,2.90
2022-10-18T16:40:26.407Z,2.63
2022-10-18T16:42:54.386Z,2.58
2022-10-18T16:45:22.361Z,2.65
2022-10-18T16:47:50.253Z,2.88
2022-10-18T16:50:20.535Z,3.15
2022-10-18T16:52:48.506Z,3.88
2022-10-18T16:55:25.073Z,3.55
2022-10-18T16:57:52.992Z,4.05
2022-10-18T17:00:23.059Z,2.78
2022-10-18T17:02:50.923Z,3.15
2022-10-18T17:05:19.309Z,3.85
2022-10-18T17:07:47.624Z,3.63
2022-10-18T17:10:19.575Z,3.80
2022-10-18T17:12:47.183Z,3.65
2022-10-18T17:15:14.820Z,3.45
2022-10-18T17:17:42.916Z,3.67
2022-10-18T17:20:20.310Z,3.80
2022-10-18T17:22:48.861Z,3.47
2022-10-18T17:25:18.467Z,3.70
2022-10-18T17:27:46.691Z,4.07
2022-10-18T17:30:15.043Z,3.28
2022-10-18T17:32:44.644Z,2.80
2022-10-18T17:35:12.773Z,3.58
2022-10-18T17:37:44.052Z,3.28
2022-10-18T17:40:13.661Z,2.50
2022-10-18T17:42:41.222Z,2.95
2022-10-18T17:45:09.579Z,3.10
2022-10-18T17:47:37.115Z,3.38
2022-10-18T17:50:04.962Z,3.45
2022-10-18T17:52:32.656Z,4.07
2022-10-18T17:55:00.228Z,4.18
2022-10-18T17:57:28.150Z,5.50
2022-10-18T17:59:56.367Z,4.97
2022-10-18T18:02:23.886Z,5.35
2022-10-18T18:04:53.714Z,5.93
2022-10-18T18:07:21.366Z,5.75
2022-10-18T18:09:49.007Z,5.60
2022-10-18T18:12:17.631Z,5.43
2022-10-18T18:14:45.122Z,6.50
2022-10-18T18:17:13.094Z,6.00
2022-10-18T18:19:40.960Z,5.10
2022-10-18T18:22:08.933Z,4.60
2022-10-18T18:24:36.725Z,3.45
2022-10-18T18:27:04.574Z,3.42
2022-10-18T18:29:32.305Z,3.47
2022-10-18T18:31:59.848Z,3.13
2022-10-18T18:34:27.354Z,3.85
2022-10-18T18:36:55.314Z,3.20
2022-10-18T18:39:25.279Z,3.45
2022-10-18T18:41:53.127Z,2.88
2022-10-18T18:44:22.030Z,3.45
2022-10-18T18:46:49.642Z,3.45
2022-10-18T18:49:17.446Z,3.55
2022-10-18T18:51:45.446Z,3.05
2022-10-18T18:54:15.098Z,4.57
2022-10-18T18:56:43.157Z,3.60
2022-10-18T18:59:14.199Z,4.25
2022-10-18T19:01:42.478Z,3.47
2022-10-18T19:04:11.061Z,3.00
2022-10-18T19:06:40.701Z,3.28
2022-10-18T19:09:18.717Z,3.45
2022-10-18T19:11:47.078Z,3.55
2022-10-18T19:14:15.580Z,3.25
2022-10-18T19:16:51.540Z,3.10
2022-10-18T19:19:20.768Z,4.15
2022-10-18T19:21:53.970Z,4.18
2022-10-18T19:24:23.685Z,3.33
2022-10-18T19:26:52.252Z,4.13
2022-10-18T19:29:28.693Z,3.13
2022-10-18T19:31:58.618Z,3.28
2022-10-18T19:34:28.982Z,3.67
2022-10-18T19:36:57.216Z,3.33
2022-10-18T19:39:26.190Z,3.28
2022-10-18T19:41:55.318Z,4.15
2022-10-18T19:44:24.332Z,3.55
2022-10-18T19:46:53.058Z,4.18
2022-10-18T19:49:21.263Z,3.90
2022-10-18T19:51:49.691Z,4.40
2022-10-18T19:54:17.751Z,3.50
2022-10-18T19:56:45.686Z,3.72
2022-10-18T19:59:15.623Z,2.92
2022-10-18T20:01:44.126Z,2.83
2022-10-18T20:04:13.103Z,3.40
2022-10-18T20:06:41.304Z,3.40
2022-10-18T20:09:11.540Z,3.17
2022-10-18T20:11:41.263Z,3.55
2022-10-18T20:14:12.993Z,3.22
2022-10-18T20:16:40.943Z,3.65
2022-10-18T20:19:09.606Z,3.20
2022-10-18T20:21:37.478Z,3.17
2022-10-18T20:24:06.499Z,4.20
2022-10-18T20:26:35.875Z,3.75
2022-10-18T20:29:04.621Z,3.55
2022-10-18T20:31:35.610Z,3.63
2022-10-18T20:34:05.271Z,3.25
2022-10-18T20:36:33.840Z,3.50
2022-10-18T20:39:01.506Z,3.55
2022-10-18T20:41:34.760Z,3.95
2022-10-18T20:44:04.956Z,4.25
2022-10-18T20:46:33.785Z,4.25
2022-10-18T20:49:01.752Z,4.43
2022-10-18T20:51:29.684Z,4.13
2022-10-18T20:53:57.284Z,4.00
2022-10-18T20:56:28.658Z,4.10
2022-10-18T20:58:57.615Z,4.00
2022-10-18T21:01:26.992Z,3.75
2022-10-18T21:03:56.723Z,4.28
2022-10-18T21:06:42.307Z,4.30
2022-10-18T21:09:17.482Z,3.63
2022-10-18T21:11:46.861Z,3.42
2022-10-18T21:14:17.123Z,4.30
2022-10-18T21:16:45.850Z,3.83
2022-10-18T21:19:22.376Z,4.80
2022-10-18T21:21:52.091Z,3.08
2022-10-18T21:24:20.747Z,3.67
2022-10-18T21:26:48.984Z,3.40
2022-10-18T21:29:21.653Z,3.42
2022-10-18T21:31:52.709Z,3.90
2022-10-18T21:34:20.810Z,3.83
2022-10-18T21:36:49.386Z,3.55
2022-10-18T21:39:18.854Z,4.57
2022-10-18T21:41:47.106Z,3.40
2022-10-18T21:44:15.547Z,3.92
2022-10-18T21:46:43.994Z,3.33
2022-10-18T21:49:11.714Z,3.60
2022-10-18T21:51:40.158Z,3.72
2022-10-18T21:54:09.310Z,3.63
2022-10-18T21:56:37.222Z,2.78
2022-10-18T21:59:05.285Z,3.80
2022-10-18T22:01:36.110Z,3.45
2022-10-18T22:04:06.542Z,3.00
2022-10-18T22:09:08.703Z,3.45
2022-10-18T22:11:40.396Z,3.00
2022-10-18T22:14:08.085Z,3.60
2022-10-18T22:16:35.695Z,3.53
2022-10-18T22:19:04.671Z,3.90
2022-10-18T22:21:32.991Z,3.03
2022-10-18T22:24:01.093Z,3.58
2022-10-18T22:26:30.810Z,3.08
2022-10-18T22:29:04.755Z,4.25
2022-10-18T22:31:33.964Z,3.60
2022-10-18T22:34:05.162Z,4.15
2022-10-18T22:36:33.762Z,3.72
2022-10-18T22:39:01.676Z,4.45
2022-10-18T22:41:29.183Z,3.95
2022-10-18T22:43:58.562Z,4.03
2022-10-18T22:46:29.146Z,4.40
2022-10-18T22:48:56.977Z,3.97
2022-10-18T22:51:25.153Z,3.50
2022-10-18T22:53:53.044Z,3.22
2022-10-18T22:56:22.910Z,5.22
2022-10-18T22:58:51.329Z,4.03
2022-10-18T23:01:20.768Z,3.75
2022-10-18T23:03:52.977Z,3.05
2022-10-18T23:06:31.691Z,3.58
2022-10-18T23:09:01.009Z,3.63
2022-10-18T23:11:29.150Z,3.50
2022-10-18T23:13:57.261Z,3.42
2022-10-18T23:16:25.159Z,3.45
2022-10-18T23:18:56.877Z,3.83
2022-10-18T23:23:54.775Z,3.28
2022-10-18T23:26:24.683Z,2.95
2022-10-18T23:28:53.303Z,3.35
2022-10-18T23:31:23.711Z,3.40
2022-10-18T23:33:53.022Z,3.13
2022-10-18T23:36:21.105Z,3.00
2022-10-18T23:38:48.986Z,2.90
2022-10-18T23:41:17.247Z,3.33
2022-10-18T23:43:45.247Z,3.40
2022-10-18T23:46:13.758Z,3.40
2022-10-18T23:48:42.054Z,5.25
2022-10-18T23:51:10.083Z,3.70
2022-10-18T23:53:37.876Z,2.80
2022-10-18T23:56:06.943Z,2.90
2022-10-18T23:58:35.668Z,3.30
